Latest Weather Observations for Mount William

IDV60801

Issued at 7:32 am EDT Friday 21 January 2022 (issued every 10 minutes, with the page automatically refreshed every 10 minutes)

About weather observations | Map of weather stations | Latest weather observations for VIC | Other Formats
Station Details ID: 079103 Name: MOUNT WILLIAM Lat: -37.30 Lon: 142.60 Height: 1150.0 m
Data from the previous 72 hours. | See also: Recent months at Mount William
Date/Time
EDT
Temp
°C
App
Temp
°C
Dew
Point
°C
Rel
Hum
%
Delta-T
°C
Wind Press
QNH
hPa
Press
MSL
hPa
Rain since
9am
mm
Dir  Spd
km/h
Gust
km/h
Spd
kts
Gust
kts
21/07:30am 11.6 0.7 9.0 84 1.4 NE 56 67 30 36 - - 0.0
21/07:00am 11.3 0.4 8.9 85 1.3 NE 56 63 30 34 - - 0.0
21/06:30am 11.4 0.3 8.8 84 1.4 NE 57 67 31 36 - - 0.0
21/06:00am 11.9 1.7 8.6 80 1.7 NE 52 59 28 32 - - 0.0
21/05:30am 12.5 2.6 8.2 75 2.3 NE 50 61 27 33 - - 0.0
21/05:00am 13.0 3.0 7.9 71 2.7 NNE 50 57 27 31 - - 0.0
21/04:30am 13.6 3.7 8.4 71 2.8 NNE 50 61 27 33 - - 0.0
21/04:00am 14.0 3.5 7.5 65 3.4 NNE 52 61 28 33 - - 0.0
21/03:30am 14.5 4.6 6.6 59 4.1 NNE 48 57 26 31 - - 0.0
21/03:00am 15.5 4.3 6.0 53 4.9 NE 54 67 29 36 - - 0.0
21/02:30am 15.5 6.7 5.7 52 5.0 NE 41 50 22 27 - - 0.0
21/02:00am 15.6 8.2 4.9 49 5.4 NE 33 43 18 23 - - 0.0
21/01:30am 15.9 8.1 4.9 48 5.5 NE 35 50 19 27 - - 0.0
21/01:00am 16.0 8.7 5.3 49 5.4 NE 33 46 18 25 - - 0.0
21/12:30am 16.3 8.3 5.6 49 5.5 NE 37 48 20 26 - - 0.0
21/12:00am 16.1 8.4 7.1 55 4.7 NE 37 50 20 27 - - 0.0
 
Date/Time
EDT
Temp
°C
App
Temp
°C
Dew
Point
°C
Rel
Hum
%
Delta-T
°C
Wind Press
QNH
hPa
Press
MSL
hPa
Rain since
9am
mm
Dir  Spd
km/h
Gust
km/h
Spd
kts
Gust
kts
20/11:30pm 16.1 7.3 7.3 56 4.6 NE 43 56 23 30 - - 0.0
20/11:00pm 16.3 7.4 7.8 57 4.5 ENE 44 57 24 31 - - 0.0
20/10:30pm 16.0 9.3 8.2 60 4.2 ENE 33 46 18 25 - - 0.0
20/10:00pm 16.3 9.6 8.0 58 4.5 ENE 33 46 18 25 - - 0.0
20/09:30pm 16.8 11.0 8.0 56 4.7 E 28 41 15 22 - - 0.0
20/09:00pm 17.6 11.9 8.2 54 5.1 E 28 41 15 22 - - 0.0
20/08:50pm 18.0 12.0 8.6 54 5.1 E 30 43 16 23 - - 0.0
20/08:30pm 19.3 15.1 7.4 46 6.4 E 19 28 10 15 - - 0.0
20/08:00pm 19.8 16.8 7.9 46 6.5 ESE 13 26 7 14 - - 0.0
20/07:30pm 20.5 16.3 8.2 45 6.8 ESE 20 30 11 16 - - 0.0
20/07:00pm 21.1 17.4 8.0 43 7.2 ESE 17 30 9 16 - - 0.0
20/06:30pm 21.6 17.9 8.1 42 7.5 ESE 17 28 9 15 - - 0.0
20/06:00pm 22.5 17.2 6.7 36 8.6 E 24 33 13 18 - - 0.0
20/05:30pm 23.2 19.1 6.1 33 9.2 ENE 17 32 9 17 - - 0.0
20/05:00pm 25.0 20.6 7.6 33 9.7 ENE 20 28 11 15 - - 0.0
20/04:30pm 24.1 20.3 5.9 31 9.8 E 15 32 8 17 - - 0.0
20/04:00pm 24.8 21.0 7.4 33 9.7 ENE 17 28 9 15 - - 0.0
20/03:30pm 24.5 21.3 8.5 36 9.0 ENE 15 28 8 15 - - 0.0
20/03:00pm 23.9 20.6 7.9 36 8.9 ENE 15 24 8 13 - - 0.0
20/02:30pm 23.7 20.0 7.8 36 8.8 ENE 17 26 9 14 - - 0.0
20/02:00pm 23.1 19.5 8.4 39 8.2 ENE 17 24 9 13 - - 0.0
20/01:30pm 22.6 18.5 8.7 41 7.8 NE 20 35 11 19 - - 0.0
20/01:00pm 21.4 18.3 8.7 44 7.1 ENE 15 28 8 15 - - 0.0
20/12:30pm 20.0 17.0 9.3 50 6.0 NE 15 24 8 13 - - 0.0
20/12:00pm 19.4 16.6 9.9 54 5.4 NE 15 20 8 11 - - 0.0
20/11:30am 18.0 16.4 10.1 60 4.4 NNE 9 17 5 9 - - 0.0
20/11:00am 16.8 13.6 10.0 64 3.8 NNE 17 30 9 16 - - 0.0
20/10:30am 16.1 12.9 10.0 67 3.4 NNE 17 28 9 15 - - 0.0
20/10:00am 15.2 10.7 10.0 71 2.9 NNE 24 33 13 18 - - 0.0
20/09:30am 14.2 10.0 9.6 74 2.5 NNE 22 32 12 17 - - 0.0
20/09:00am 13.2 8.5 9.1 76 2.2 NNE 24 35 13 19 - - 0.2
20/08:30am 12.8 7.2 8.7 76 2.2 NNE 28 32 15 17 - - 0.2
20/08:00am 12.6 6.6 8.5 76 2.2 NNE 30 35 16 19 - - 0.2
20/07:30am 12.0 5.9 8.1 77 2.0 NNE 30 35 16 19 - - 0.2
20/07:00am 11.6 5.8 7.9 78 1.9 NNE 28 33 15 18 - - 0.2
20/06:30am 11.8 5.7 8.1 78 1.9 NNE 30 35 16 19 - - 0.2
20/06:00am 11.9 5.3 7.8 76 2.1 NE 32 35 17 19 - - 0.2
20/05:30am 12.4 6.2 7.7 73 2.4 NE 30 37 16 20 - - 0.2
20/05:00am 12.8 5.6 7.5 70 2.8 NE 35 41 19 22 - - 0.2
20/04:30am 13.0 6.3 7.5 69 2.9 NE 32 39 17 21 - - 0.2
20/04:00am 13.3 7.0 7.3 67 3.1 NE 30 35 16 19 - - 0.2
20/03:30am 13.1 6.9 7.8 70 2.8 ENE 30 35 16 19 - - 0.2
20/03:00am 13.1 6.8 7.3 68 3.0 NE 30 33 16 18 - - 0.2
20/02:30am 13.6 7.3 7.2 65 3.3 ENE 30 39 16 21 - - 0.2
20/02:00am 14.7 7.8 7.3 61 3.9 ENE 33 46 18 25 - - 0.2
20/01:30am 14.8 7.3 7.8 63 3.7 ENE 37 50 20 27 - - 0.2
20/01:00am 14.5 6.5 7.5 63 3.7 ENE 39 48 21 26 - - 0.2
20/12:30am 14.9 8.3 8.4 65 3.5 ENE 33 50 18 27 - - 0.2
20/12:00am 13.8 8.1 8.4 70 2.9 E 28 35 15 19 - - 0.2
 
Date/Time
EDT
Temp
°C
App
Temp
°C
Dew
Point
°C
Rel
Hum
%
Delta-T
°C
Wind Press
QNH
hPa
Press
MSL
hPa
Rain since
9am
mm
Dir  Spd
km/h
Gust
km/h
Spd
kts
Gust
kts
19/11:30pm 11.8 5.8 8.6 81 1.7 SSE 30 37 16 20 - - 0.2
19/11:00pm 11.2 4.8 8.6 84 1.4 SSE 32 39 17 21 - - 0.2
19/10:30pm 11.4 6.1 8.6 83 1.5 SSE 26 37 14 20 - - 0.2
19/10:00pm 11.9 5.6 9.1 83 1.5 S 32 39 17 21 - - 0.2
19/09:30pm 12.6 5.8 9.2 80 1.8 SSE 35 41 19 22 - - 0.2
19/09:00pm 12.8 6.5 9.8 82 1.6 SSE 33 39 18 21 - - 0.2
19/08:30pm 13.9 7.4 9.1 73 2.6 SSE 33 44 18 24 - - 0.2
19/08:00pm 14.7 8.2 8.9 68 3.1 SSE 33 44 18 24 - - 0.2
19/07:30pm 15.3 9.1 9.2 67 3.3 SSE 32 46 17 25 - - 0.2
19/07:00pm 15.9 9.6 9.8 67 3.4 SSE 33 48 18 26 - - 0.2
19/06:30pm 16.6 10.6 10.0 65 3.7 SE 32 52 17 28 - - 0.2
19/06:11pm 17.3 12.1 10.2 63 4.0 SSE 28 54 15 29 - - 0.2
19/06:00pm 17.9 13.1 10.3 61 4.3 SE 26 52 14 28 - - 0.2
19/05:54pm 18.3 13.8 10.2 59 4.6 SE 24 50 13 27 - - 0.2
19/05:30pm 18.9 14.6 10.7 59 4.7 ESE 24 48 13 26 - - 0.2
19/05:00pm 19.0 15.1 10.8 59 4.7 ESE 22 43 12 23 - - 0.2
19/04:30pm 19.7 16.0 11.5 59 4.8 SE 22 41 12 22 - - 0.2
19/04:00pm 20.1 16.6 12.3 61 4.6 ESE 22 41 12 22 - - 0.2
19/03:30pm 20.6 15.9 12.1 58 5.0 E 28 50 15 27 - - 0.2
19/03:13pm 20.7 16.2 12.7 60 4.8 E 28 48 15 26 - - 0.2
19/03:00pm 20.5 16.8 12.7 61 4.7 E 24 43 13 23 - - 0.2
19/02:30pm 20.2 14.9 12.4 61 4.6 E 32 52 17 28 - - 0.2
19/02:24pm 20.1 15.7 12.8 63 4.4 E 28 52 15 28 - - 0.2
19/02:00pm 19.4 16.2 13.1 67 3.8 ESE 22 46 12 25 - - 0.2
19/01:47pm 19.3 15.0 13.3 68 3.6 ESE 28 48 15 26 - - 0.2
19/01:30pm 18.3 15.6 13.0 71 3.1 ESE 19 37 10 20 - - 0.2
19/01:05pm 17.9 13.6 13.2 74 2.8 ESE 28 50 15 27 - - 0.0
19/01:00pm 17.3 14.4 13.0 76 2.5 ESE 20 46 11 25 - - 0.0
19/12:30pm 16.9 13.8 13.4 80 2.1 ESE 22 41 12 22 - - 0.0
19/12:00pm 14.7 12.4 14.7 100 0.0 ESE 20 41 11 22 - - 0.0
19/11:30am 14.1 11.8 14.1 100 0.0 ESE 19 35 10 19 - - 0.0
19/11:00am 12.6 9.2 12.6 100 0.0 SE 22 41 12 22 - - 0.0
19/10:30am 11.4 5.8 11.4 100 0.0 SE 32 44 17 24 - - 0.0
19/10:00am 10.7 6.0 10.7 100 0.0 SE 26 43 14 23 - - 0.0
19/09:54am 10.7 5.2 10.7 100 0.0 SE 30 50 16 27 - - 0.0
19/09:30am 10.2 4.0 10.2 100 0.0 SE 33 46 18 25 - - 0.0
19/09:00am 9.6 2.5 9.6 100 0.0 SE 37 56 20 30 - - 0.0
19/08:30am 9.0 2.1 9.0 100 0.0 SE 35 57 19 31 - - 0.0
19/08:02am 8.8 1.5 8.8 100 0.0 SE 37 57 20 31 - - 0.0
19/08:00am 8.8 1.1 8.8 100 0.0 SE 39 57 21 31 - - 0.0
19/07:30am 8.5 0.0 8.5 100 0.0 SSE 43 63 23 34 - - 0.0
19/07:04am 8.2 -0.6 8.2 100 0.0 SSE 44 65 24 35 - - 0.0
19/07:00am 8.0 -0.8 8.0 100 0.0 SSE 44 61 24 33 - - 0.0
19/06:49am 7.8 -0.9 7.8 100 0.0 SSE 43 67 23 36 - - 0.0
19/06:30am 7.8 -0.9 7.8 100 0.0 SSE 43 59 23 32 - - 0.0
19/06:00am 7.8 -1.4 7.8 100 0.0 SSE 46 63 25 34 - - 0.0
19/05:30am 7.5 -2.2 7.5 100 0.0 SSE 48 61 26 33 - - 0.0
19/05:00am 7.3 -2.8 7.3 100 0.0 SSE 50 70 27 38 - - 0.0
19/04:30am 7.0 -3.2 7.0 100 0.0 SSE 50 70 27 38 - - 0.0
19/04:26am 6.9 -3.7 6.9 100 0.0 SSE 52 70 28 38 - - 0.0
19/04:00am 6.6 -4.1 6.6 100 0.0 SSE 52 65 28 35 - - 0.0
19/03:30am 6.5 -4.6 6.5 100 0.0 SSE 54 70 29 38 - - 0.0
19/03:27am 6.5 -4.2 6.5 100 0.0 SSE 52 70 28 38 - - 0.0
19/03:00am 6.4 -5.1 6.4 100 0.0 SSE 56 72 30 39 - - 0.0
19/02:30am 6.2 -4.6 6.2 100 0.0 SSE 52 70 28 38 - - 0.0
19/02:00am 6.1 -5.6 6.1 100 0.0 S 57 70 31 38 - - 0.0
19/01:30am 6.2 -5.3 6.2 100 0.0 S 56 69 30 37 - - 0.0
19/01:00am 6.2 -5.5 6.2 100 0.0 S 57 72 31 39 - - 0.0
19/12:30am 6.2 -5.3 6.2 100 0.0 S 56 69 30 37 - - 0.0
19/12:12am 6.1 -5.1 6.1 100 0.0 S 54 74 29 40 - - 0.0
19/12:00am 6.1 -5.6 6.1 100 0.0 S 57 69 31 37 - - 0.0
 
Date/Time
EDT
Temp
°C
App
Temp
°C
Dew
Point
°C
Rel
Hum
%
Delta-T
°C
Wind Press
QNH
hPa
Press
MSL
hPa
Rain since
9am
mm
Dir  Spd
km/h
Gust
km/h
Spd
kts
Gust
kts
18/11:30pm 6.4 -5.1 6.4 100 0.0 S 56 69 30 37 - - 0.0
18/11:00pm 6.3 -5.2 6.3 100 0.0 S 56 69 30 37 - - 0.0
18/10:30pm 6.7 -4.3 6.7 100 0.0 S 54 67 29 36 - - 0.0
18/10:00pm 6.8 -3.8 6.8 100 0.0 S 52 65 28 35 - - 0.0
18/09:30pm 7.1 -3.5 7.0 99 0.0 S 52 67 28 36 - - 0.0
18/09:00pm 7.6 -3.0 6.7 94 0.4 S 52 65 28 35 - - 0.0
18/08:30pm 8.3 -1.9 6.8 90 0.7 S 50 65 27 35 - - 0.0
18/08:00pm 9.5 -0.3 6.9 84 1.3 S 48 63 26 34 - - 0.0
18/07:32pm 9.8 0.9 7.6 86 1.1 S 44 65 24 35 - - 0.0
18/07:30pm 9.9 0.6 7.5 85 1.2 S 46 65 25 35 - - 0.0
18/07:00pm 10.9 2.6 7.6 80 1.7 S 41 56 22 30 - - 0.0
18/06:38pm 10.7 2.4 7.6 81 1.6 S 41 59 22 32 - - 0.0
18/06:30pm 10.9 1.5 7.2 78 1.9 S 46 59 25 32 - - 0.0
18/06:00pm 11.4 2.8 8.1 80 1.7 S 43 57 23 31 - - 0.0
18/05:43pm 11.6 2.9 7.9 78 1.9 S 43 63 23 34 - - 0.0
18/05:30pm 12.1 3.8 7.8 75 2.2 S 41 57 22 31 - - 0.0
18/05:06pm 12.5 5.0 8.0 74 2.4 S 37 56 20 30 - - 0.0
18/05:00pm 12.2 4.3 7.7 74 2.3 S 39 52 21 28 - - 0.0
18/04:30pm 12.9 6.2 7.4 69 2.9 S 32 50 17 27 - - 0.0
18/04:00pm 12.6 5.6 6.9 68 2.9 S 33 61 18 33 - - 0.0
18/03:47pm 12.6 5.3 7.1 69 2.8 S 35 57 19 31 - - 0.0
18/03:30pm 12.3 4.6 7.2 71 2.6 S 37 50 20 27 - - 0.0
18/03:00pm 12.5 5.3 7.6 72 2.5 S 35 50 19 27 - - 0.0
18/02:30pm 12.1 5.6 8.0 76 2.1 S 32 46 17 25 - - 0.0
18/02:00pm 11.9 5.1 7.6 75 2.2 S 33 50 18 27 - - 0.0
18/01:30pm 11.3 3.9 6.8 74 2.3 S 35 48 19 26 - - 0.0
18/01:00pm 11.4 5.1 7.5 77 2.0 S 30 43 16 23 - - 0.0
18/12:30pm 11.1 4.7 7.0 76 2.1 S 30 44 16 24 - - 0.0
18/12:00pm 11.0 4.2 7.1 77 2.0 S 32 46 17 25 - - 0.0
18/11:36am 10.7 4.6 6.8 77 2.0 S 28 46 15 25 - - 0.0
18/11:30am 10.3 3.2 6.5 77 1.9 S 33 46 18 25 - - 0.0
18/11:00am 9.4 1.9 6.3 81 1.5 S 35 46 19 25 - - 0.0
18/10:30am 8.2 0.2 5.7 84 1.2 S 37 52 20 28 - - 0.0
18/10:00am 7.1 -0.3 6.8 98 0.1 S 35 46 19 25 - - 0.0
18/09:30am 6.3 -2.4 6.2 99 0.0 S 41 50 22 27 - - 0.0
18/09:00am 6.1 -1.8 6.1 100 0.0 S 37 48 20 26 - - 0.0
18/08:30am 5.9 -3.2 5.9 100 0.0 S 43 56 23 30 - - 0.0
18/08:00am 5.5 -3.7 5.5 100 0.0 S 43 50 23 27 - - 0.0

Other formats

Comma delimited format used in spreadsheet applications
http://www.bom.gov.au/fwo/IDV60801/IDV60801.94833.axf

JavaScript Object Notation format (JSON) in row-major order
http://www.bom.gov.au/fwo/IDV60801/IDV60801.94833.json

Data quality

Most of these data are generated automatically and are frequently updated. Quality checks on data are not normally performed. It is possible for incorrect values to appear. Refer to information at About Latest Weather Observations and please check the disclaimer before using these data.